sensor_id;sensor_type;location;lat;lon;timestamp;P1;durP1;ratioP1;P2;durP2;ratioP2
74892;SDS011;63446;56.272;43.922;2023-11-21T00:02:10;11.67;;;3.30;;
74892;SDS011;63446;56.272;43.922;2023-11-21T00:04:36;8.38;;;3.13;;
74892;SDS011;63446;56.272;43.922;2023-11-21T00:07:03;7.60;;;2.53;;
74892;SDS011;63446;56.272;43.922;2023-11-21T00:09:31;7.28;;;3.00;;
74892;SDS011;63446;56.272;43.922;2023-11-21T00:11:58;8.60;;;2.67;;
74892;SDS011;63446;56.272;43.922;2023-11-21T00:14:27;9.40;;;3.33;;
74892;SDS011;63446;56.272;43.922;2023-11-21T00:16:53;8.07;;;3.40;;
74892;SDS011;63446;56.272;43.922;2023-11-21T00:19:19;8.77;;;2.95;;
74892;SDS011;63446;56.272;43.922;2023-11-21T00:21:45;9.27;;;3.20;;
74892;SDS011;63446;56.272;43.922;2023-11-21T00:24:11;8.55;;;3.58;;
74892;SDS011;63446;56.272;43.922;2023-11-21T00:26:39;11.80;;;3.60;;
74892;SDS011;63446;56.272;43.922;2023-11-21T00:29:06;7.90;;;2.97;;
74892;SDS011;63446;56.272;43.922;2023-11-21T00:31:34;9.40;;;3.03;;
74892;SDS011;63446;56.272;43.922;2023-11-21T00:34:04;9.70;;;3.47;;
74892;SDS011;63446;56.272;43.922;2023-11-21T00:36:34;8.57;;;3.20;;
74892;SDS011;63446;56.272;43.922;2023-11-21T00:39:00;8.35;;;2.50;;
74892;SDS011;63446;56.272;43.922;2023-11-21T00:41:29;8.90;;;3.38;;
74892;SDS011;63446;56.272;43.922;2023-11-21T00:43:54;10.77;;;3.40;;
74892;SDS011;63446;56.272;43.922;2023-11-21T00:46:21;7.25;;;2.53;;
74892;SDS011;63446;56.272;43.922;2023-11-21T00:48:48;9.85;;;3.35;;
74892;SDS011;63446;56.272;43.922;2023-11-21T00:51:16;8.30;;;2.38;;
74892;SDS011;63446;56.272;43.922;2023-11-21T00:53:43;10.45;;;3.53;;
74892;SDS011;63446;56.272;43.922;2023-11-21T00:56:08;12.70;;;3.63;;
74892;SDS011;63446;56.272;43.922;2023-11-21T00:58:36;7.82;;;2.92;;
74892;SDS011;63446;56.272;43.922;2023-11-21T01:01:01;9.07;;;3.30;;
74892;SDS011;63446;56.272;43.922;2023-11-21T01:03:28;7.57;;;2.50;;
74892;SDS011;63446;56.272;43.922;2023-11-21T01:05:55;7.80;;;2.53;;
74892;SDS011;63446;56.272;43.922;2023-11-21T01:08:20;7.35;;;3.00;;
74892;SDS011;63446;56.272;43.922;2023-11-21T01:10:47;9.88;;;2.97;;
74892;SDS011;63446;56.272;43.922;2023-11-21T01:13:13;6.53;;;2.20;;
74892;SDS011;63446;56.272;43.922;2023-11-21T01:15:40;11.48;;;3.30;;
74892;SDS011;63446;56.272;43.922;2023-11-21T01:18:07;11.23;;;3.30;;
74892;SDS011;63446;56.272;43.922;2023-11-21T01:20:34;8.68;;;2.85;;
74892;SDS011;63446;56.272;43.922;2023-11-21T01:23:00;7.70;;;2.50;;
74892;SDS011;63446;56.272;43.922;2023-11-21T01:25:27;5.97;;;2.13;;
74892;SDS011;63446;56.272;43.922;2023-11-21T01:27:54;7.47;;;2.80;;
74892;SDS011;63446;56.272;43.922;2023-11-21T01:30:19;6.05;;;2.53;;
74892;SDS011;63446;56.272;43.922;2023-11-21T01:32:45;10.43;;;3.33;;
74892;SDS011;63446;56.272;43.922;2023-11-21T01:35:12;7.78;;;3.08;;
74892;SDS011;63446;56.272;43.922;2023-11-21T01:37:38;8.50;;;2.65;;
74892;SDS011;63446;56.272;43.922;2023-11-21T01:40:04;7.53;;;2.60;;
74892;SDS011;63446;56.272;43.922;2023-11-21T01:42:36;8.55;;;2.83;;
74892;SDS011;63446;56.272;43.922;2023-11-21T01:45:02;3.43;;;1.20;;
74892;SDS011;63446;56.272;43.922;2023-11-21T01:47:32;7.38;;;2.78;;
74892;SDS011;63446;56.272;43.922;2023-11-21T01:49:59;9.82;;;2.65;;
74892;SDS011;63446;56.272;43.922;2023-11-21T01:52:27;7.70;;;2.95;;
74892;SDS011;63446;56.272;43.922;2023-11-21T01:54:55;6.40;;;2.20;;
74892;SDS011;63446;56.272;43.922;2023-11-21T01:57:21;8.40;;;2.92;;
74892;SDS011;63446;56.272;43.922;2023-11-21T01:59:47;7.57;;;2.08;;
74892;SDS011;63446;56.272;43.922;2023-11-21T02:02:15;6.05;;;2.13;;
74892;SDS011;63446;56.272;43.922;2023-11-21T02:04:42;10.90;;;3.73;;
74892;SDS011;63446;56.272;43.922;2023-11-21T02:07:08;6.90;;;2.22;;
74892;SDS011;63446;56.272;43.922;2023-11-21T02:09:35;9.63;;;3.10;;
74892;SDS011;63446;56.272;43.922;2023-11-21T02:12:04;8.88;;;3.17;;
74892;SDS011;63446;56.272;43.922;2023-11-21T02:14:31;7.90;;;2.40;;
74892;SDS011;63446;56.272;43.922;2023-11-21T02:16:58;8.50;;;3.03;;
74892;SDS011;63446;56.272;43.922;2023-11-21T02:19:25;8.32;;;2.42;;
74892;SDS011;63446;56.272;43.922;2023-11-21T02:21:52;8.88;;;2.67;;
74892;SDS011;63446;56.272;43.922;2023-11-21T02:24:21;10.68;;;3.80;;
74892;SDS011;63446;56.272;43.922;2023-11-21T02:26:48;12.68;;;2.83;;
74892;SDS011;63446;56.272;43.922;2023-11-21T02:29:19;9.00;;;2.73;;
74892;SDS011;63446;56.272;43.922;2023-11-21T02:31:48;7.68;;;3.08;;
74892;SDS011;63446;56.272;43.922;2023-11-21T02:34:15;7.75;;;2.92;;
74892;SDS011;63446;56.272;43.922;2023-11-21T02:36:42;8.95;;;3.08;;
74892;SDS011;63446;56.272;43.922;2023-11-21T02:39:11;10.93;;;3.92;;
74892;SDS011;63446;56.272;43.922;2023-11-21T02:41:38;9.77;;;3.50;;
74892;SDS011;63446;56.272;43.922;2023-11-21T02:44:05;9.27;;;3.08;;
74892;SDS011;63446;56.272;43.922;2023-11-21T02:46:33;10.38;;;3.10;;
74892;SDS011;63446;56.272;43.922;2023-11-21T02:49:00;10.07;;;3.22;;
74892;SDS011;63446;56.272;43.922;2023-11-21T02:51:30;9.63;;;3.30;;
74892;SDS011;63446;56.272;43.922;2023-11-21T02:53:56;8.93;;;2.90;;
74892;SDS011;63446;56.272;43.922;2023-11-21T02:56:27;10.40;;;3.50;;
74892;SDS011;63446;56.272;43.922;2023-11-21T02:58:55;8.40;;;2.83;;
74892;SDS011;63446;56.272;43.922;2023-11-21T03:01:22;9.23;;;3.50;;
74892;SDS011;63446;56.272;43.922;2023-11-21T03:03:49;11.07;;;3.38;;
74892;SDS011;63446;56.272;43.922;2023-11-21T03:06:19;9.97;;;3.07;;
74892;SDS011;63446;56.272;43.922;2023-11-21T03:08:45;8.52;;;2.95;;
74892;SDS011;63446;56.272;43.922;2023-11-21T03:11:12;8.95;;;2.33;;
74892;SDS011;63446;56.272;43.922;2023-11-21T03:13:39;8.45;;;3.05;;
74892;SDS011;63446;56.272;43.922;2023-11-21T03:16:09;8.73;;;3.38;;
74892;SDS011;63446;56.272;43.922;2023-11-21T03:18:39;4.03;;;1.33;;
74892;SDS011;63446;56.272;43.922;2023-11-21T03:21:05;8.80;;;3.25;;
74892;SDS011;63446;56.272;43.922;2023-11-21T03:23:35;10.57;;;3.35;;
74892;SDS011;63446;56.272;43.922;2023-11-21T03:26:03;8.63;;;2.80;;
74892;SDS011;63446;56.272;43.922;2023-11-21T03:28:30;7.88;;;3.10;;
74892;SDS011;63446;56.272;43.922;2023-11-21T03:30:57;13.27;;;3.50;;
74892;SDS011;63446;56.272;43.922;2023-11-21T03:33:24;9.02;;;2.97;;
74892;SDS011;63446;56.272;43.922;2023-11-21T03:35:51;9.98;;;2.97;;
74892;SDS011;63446;56.272;43.922;2023-11-21T03:38:19;8.65;;;3.10;;
74892;SDS011;63446;56.272;43.922;2023-11-21T03:40:46;9.75;;;3.03;;
74892;SDS011;63446;56.272;43.922;2023-11-21T03:43:14;12.00;;;3.50;;
74892;SDS011;63446;56.272;43.922;2023-11-21T03:45:40;7.78;;;2.85;;
74892;SDS011;63446;56.272;43.922;2023-11-21T03:48:06;6.70;;;2.63;;
74892;SDS011;63446;56.272;43.922;2023-11-21T03:50:35;11.05;;;3.20;;
74892;SDS011;63446;56.272;43.922;2023-11-21T03:53:01;9.05;;;2.85;;
74892;SDS011;63446;56.272;43.922;2023-11-21T03:55:28;7.90;;;2.83;;
74892;SDS011;63446;56.272;43.922;2023-11-21T03:57:57;7.55;;;3.08;;
74892;SDS011;63446;56.272;43.922;2023-11-21T04:00:24;7.63;;;2.90;;
74892;SDS011;63446;56.272;43.922;2023-11-21T04:02:52;9.80;;;3.25;;
74892;SDS011;63446;56.272;43.922;2023-11-21T04:05:20;9.27;;;3.15;;
74892;SDS011;63446;56.272;43.922;2023-11-21T04:07:51;8.60;;;2.80;;
74892;SDS011;63446;56.272;43.922;2023-11-21T04:10:17;7.20;;;2.88;;
74892;SDS011;63446;56.272;43.922;2023-11-21T04:12:44;9.93;;;3.33;;
74892;SDS011;63446;56.272;43.922;2023-11-21T04:15:11;8.43;;;2.78;;
74892;SDS011;63446;56.272;43.922;2023-11-21T04:17:39;8.68;;;2.90;;
74892;SDS011;63446;56.272;43.922;2023-11-21T04:20:06;9.00;;;2.97;;
74892;SDS011;63446;56.272;43.922;2023-11-21T04:22:40;8.57;;;2.95;;
74892;SDS011;63446;56.272;43.922;2023-11-21T04:25:10;7.55;;;2.83;;
74892;SDS011;63446;56.272;43.922;2023-11-21T04:27:38;12.18;;;3.05;;
74892;SDS011;63446;56.272;43.922;2023-11-21T04:30:12;9.27;;;3.17;;
74892;SDS011;63446;56.272;43.922;2023-11-21T04:32:39;11.60;;;3.40;;
74892;SDS011;63446;56.272;43.922;2023-11-21T04:35:08;10.77;;;3.20;;
74892;SDS011;63446;56.272;43.922;2023-11-21T04:37:34;8.27;;;3.05;;
74892;SDS011;63446;56.272;43.922;2023-11-21T04:40:01;10.18;;;3.28;;
74892;SDS011;63446;56.272;43.922;2023-11-21T04:42:33;9.07;;;2.47;;
74892;SDS011;63446;56.272;43.922;2023-11-21T04:45:01;10.17;;;3.20;;
74892;SDS011;63446;56.272;43.922;2023-11-21T04:47:30;13.18;;;3.67;;
74892;SDS011;63446;56.272;43.922;2023-11-21T04:49:56;7.20;;;2.78;;
74892;SDS011;63446;56.272;43.922;2023-11-21T04:52:22;12.13;;;3.50;;
74892;SDS011;63446;56.272;43.922;2023-11-21T04:54:48;7.80;;;3.00;;
74892;SDS011;63446;56.272;43.922;2023-11-21T04:57:14;8.43;;;3.33;;
74892;SDS011;63446;56.272;43.922;2023-11-21T04:59:40;7.93;;;3.35;;
74892;SDS011;63446;56.272;43.922;2023-11-21T05:02:06;11.23;;;3.20;;
74892;SDS011;63446;56.272;43.922;2023-11-21T05:04:32;7.72;;;3.08;;
74892;SDS011;63446;56.272;43.922;2023-11-21T05:06:59;7.45;;;2.85;;
74892;SDS011;63446;56.272;43.922;2023-11-21T05:09:26;10.55;;;3.72;;
74892;SDS011;63446;56.272;43.922;2023-11-21T05:11:54;12.60;;;3.77;;
74892;SDS011;63446;56.272;43.922;2023-11-21T05:14:20;10.05;;;3.38;;
74892;SDS011;63446;56.272;43.922;2023-11-21T05:16:46;9.85;;;3.20;;
74892;SDS011;63446;56.272;43.922;2023-11-21T05:19:12;10.05;;;3.63;;
74892;SDS011;63446;56.272;43.922;2023-11-21T05:21:38;11.63;;;3.33;;
74892;SDS011;63446;56.272;43.922;2023-11-21T05:24:04;8.88;;;3.28;;
74892;SDS011;63446;56.272;43.922;2023-11-21T05:26:30;7.75;;;2.85;;
74892;SDS011;63446;56.272;43.922;2023-11-21T05:28:56;8.63;;;3.22;;
74892;SDS011;63446;56.272;43.922;2023-11-21T05:31:23;8.77;;;3.17;;
74892;SDS011;63446;56.272;43.922;2023-11-21T05:33:49;7.10;;;2.72;;
74892;SDS011;63446;56.272;43.922;2023-11-21T05:36:15;10.30;;;3.85;;
74892;SDS011;63446;56.272;43.922;2023-11-21T05:38:41;7.82;;;3.20;;
74892;SDS011;63446;56.272;43.922;2023-11-21T05:41:07;9.93;;;3.50;;
74892;SDS011;63446;56.272;43.922;2023-11-21T05:43:36;11.00;;;3.58;;
74892;SDS011;63446;56.272;43.922;2023-11-21T05:46:02;9.88;;;3.85;;
74892;SDS011;63446;56.272;43.922;2023-11-21T05:48:28;8.68;;;3.60;;
74892;SDS011;63446;56.272;43.922;2023-11-21T05:50:54;11.50;;;3.83;;
74892;SDS011;63446;56.272;43.922;2023-11-21T05:53:20;10.82;;;3.53;;
74892;SDS011;63446;56.272;43.922;2023-11-21T05:55:46;9.03;;;3.50;;
74892;SDS011;63446;56.272;43.922;2023-11-21T05:58:11;8.98;;;3.50;;
74892;SDS011;63446;56.272;43.922;2023-11-21T06:00:39;10.57;;;3.88;;
74892;SDS011;63446;56.272;43.922;2023-11-21T06:03:06;7.63;;;2.97;;
74892;SDS011;63446;56.272;43.922;2023-11-21T06:05:34;9.63;;;3.53;;
74892;SDS011;63446;56.272;43.922;2023-11-21T06:08:00;9.63;;;3.50;;
74892;SDS011;63446;56.272;43.922;2023-11-21T06:10:28;8.15;;;3.42;;
74892;SDS011;63446;56.272;43.922;2023-11-21T06:12:54;8.98;;;3.40;;
74892;SDS011;63446;56.272;43.922;2023-11-21T06:15:21;8.13;;;3.10;;
74892;SDS011;63446;56.272;43.922;2023-11-21T06:17:49;12.17;;;3.90;;
74892;SDS011;63446;56.272;43.922;2023-11-21T06:20:18;10.68;;;3.70;;
74892;SDS011;63446;56.272;43.922;2023-11-21T06:22:46;12.45;;;4.35;;
74892;SDS011;63446;56.272;43.922;2023-11-21T06:25:13;10.23;;;3.53;;
74892;SDS011;63446;56.272;43.922;2023-11-21T06:27:50;8.82;;;3.47;;
74892;SDS011;63446;56.272;43.922;2023-11-21T06:30:18;7.00;;;2.20;;
74892;SDS011;63446;56.272;43.922;2023-11-21T06:32:45;13.25;;;3.65;;
74892;SDS011;63446;56.272;43.922;2023-11-21T06:35:11;11.23;;;3.38;;
74892;SDS011;63446;56.272;43.922;2023-11-21T06:37:39;12.25;;;3.85;;
74892;SDS011;63446;56.272;43.922;2023-11-21T06:40:05;10.68;;;3.63;;
74892;SDS011;63446;56.272;43.922;2023-11-21T06:42:32;10.00;;;3.43;;
74892;SDS011;63446;56.272;43.922;2023-11-21T06:44:59;12.02;;;3.75;;
74892;SDS011;63446;56.272;43.922;2023-11-21T06:47:32;11.77;;;3.65;;
74892;SDS011;63446;56.272;43.922;2023-11-21T06:49:59;12.75;;;3.72;;
74892;SDS011;63446;56.272;43.922;2023-11-21T06:52:26;11.43;;;3.95;;
74892;SDS011;63446;56.272;43.922;2023-11-21T06:54:52;9.10;;;3.33;;
74892;SDS011;63446;56.272;43.922;2023-11-21T06:57:18;10.32;;;3.67;;
74892;SDS011;63446;56.272;43.922;2023-11-21T06:59:44;8.60;;;2.45;;
74892;SDS011;63446;56.272;43.922;2023-11-21T07:02:10;10.27;;;3.72;;
74892;SDS011;63446;56.272;43.922;2023-11-21T07:04:36;7.72;;;2.97;;
74892;SDS011;63446;56.272;43.922;2023-11-21T07:07:03;8.73;;;3.30;;
74892;SDS011;63446;56.272;43.922;2023-11-21T07:09:30;10.80;;;3.30;;
74892;SDS011;63446;56.272;43.922;2023-11-21T07:11:57;10.80;;;3.60;;
74892;SDS011;63446;56.272;43.922;2023-11-21T07:14:24;11.03;;;2.90;;
74892;SDS011;63446;56.272;43.922;2023-11-21T07:16:50;10.85;;;3.50;;
74892;SDS011;63446;56.272;43.922;2023-11-21T07:19:18;8.63;;;3.25;;
74892;SDS011;63446;56.272;43.922;2023-11-21T07:21:45;10.10;;;3.28;;
74892;SDS011;63446;56.272;43.922;2023-11-21T07:24:12;7.28;;;2.42;;
74892;SDS011;63446;56.272;43.922;2023-11-21T07:26:38;9.10;;;3.60;;
74892;SDS011;63446;56.272;43.922;2023-11-21T07:29:04;14.00;;;3.70;;
74892;SDS011;63446;56.272;43.922;2023-11-21T07:31:32;9.20;;;3.63;;
74892;SDS011;63446;56.272;43.922;2023-11-21T07:34:01;7.88;;;2.75;;
74892;SDS011;63446;56.272;43.922;2023-11-21T07:36:27;6.60;;;3.10;;
74892;SDS011;63446;56.272;43.922;2023-11-21T07:38:53;8.03;;;2.80;;
74892;SDS011;63446;56.272;43.922;2023-11-21T07:41:20;10.38;;;3.67;;
74892;SDS011;63446;56.272;43.922;2023-11-21T07:43:46;10.70;;;3.72;;
74892;SDS011;63446;56.272;43.922;2023-11-21T07:46:13;8.43;;;3.22;;
74892;SDS011;63446;56.272;43.922;2023-11-21T07:48:40;11.15;;;4.03;;
74892;SDS011;63446;56.272;43.922;2023-11-21T07:51:08;13.90;;;3.60;;
74892;SDS011;63446;56.272;43.922;2023-11-21T07:53:36;13.30;;;4.05;;
74892;SDS011;63446;56.272;43.922;2023-11-21T07:56:02;11.98;;;3.85;;
74892;SDS011;63446;56.272;43.922;2023-11-21T07:58:29;10.43;;;3.58;;
74892;SDS011;63446;56.272;43.922;2023-11-21T08:00:56;9.68;;;3.95;;
74892;SDS011;63446;56.272;43.922;2023-11-21T08:03:23;12.97;;;4.77;;
74892;SDS011;63446;56.272;43.922;2023-11-21T08:05:49;11.25;;;4.53;;
74892;SDS011;63446;56.272;43.922;2023-11-21T08:08:15;16.17;;;5.13;;
74892;SDS011;63446;56.272;43.922;2023-11-21T08:10:46;12.15;;;4.43;;
74892;SDS011;63446;56.272;43.922;2023-11-21T08:13:14;9.95;;;4.07;;
74892;SDS011;63446;56.272;43.922;2023-11-21T08:15:42;13.90;;;4.10;;
74892;SDS011;63446;56.272;43.922;2023-11-21T08:18:11;12.13;;;4.63;;
74892;SDS011;63446;56.272;43.922;2023-11-21T08:20:40;15.80;;;5.30;;
74892;SDS011;63446;56.272;43.922;2023-11-21T08:23:07;10.48;;;3.55;;
74892;SDS011;63446;56.272;43.922;2023-11-21T08:25:33;12.90;;;4.20;;
74892;SDS011;63446;56.272;43.922;2023-11-21T08:28:01;12.53;;;4.80;;
74892;SDS011;63446;56.272;43.922;2023-11-21T08:30:27;7.80;;;3.10;;
74892;SDS011;63446;56.272;43.922;2023-11-21T08:32:55;11.07;;;4.13;;
74892;SDS011;63446;56.272;43.922;2023-11-21T08:35:26;16.20;;;4.90;;
74892;SDS011;63446;56.272;43.922;2023-11-21T08:37:52;15.50;;;6.40;;
74892;SDS011;63446;56.272;43.922;2023-11-21T08:40:19;12.40;;;5.37;;
74892;SDS011;63446;56.272;43.922;2023-11-21T08:42:47;16.00;;;4.70;;
74892;SDS011;63446;56.272;43.922;2023-11-21T08:45:17;11.23;;;4.65;;
74892;SDS011;63446;56.272;43.922;2023-11-21T08:47:43;13.40;;;4.22;;
74892;SDS011;63446;56.272;43.922;2023-11-21T08:50:09;11.55;;;4.38;;
74892;SDS011;63446;56.272;43.922;2023-11-21T08:52:38;13.97;;;4.43;;
74892;SDS011;63446;56.272;43.922;2023-11-21T08:55:06;14.70;;;5.10;;
74892;SDS011;63446;56.272;43.922;2023-11-21T08:57:34;11.98;;;4.25;;
74892;SDS011;63446;56.272;43.922;2023-11-21T09:00:01;16.40;;;4.90;;
74892;SDS011;63446;56.272;43.922;2023-11-21T09:02:31;12.57;;;4.57;;
74892;SDS011;63446;56.272;43.922;2023-11-21T09:04:57;12.33;;;4.80;;
74892;SDS011;63446;56.272;43.922;2023-11-21T09:07:24;12.38;;;4.82;;
74892;SDS011;63446;56.272;43.922;2023-11-21T09:09:51;16.15;;;5.50;;
74892;SDS011;63446;56.272;43.922;2023-11-21T09:12:17;15.02;;;4.53;;
74892;SDS011;63446;56.272;43.922;2023-11-21T09:14:44;13.82;;;4.35;;
74892;SDS011;63446;56.272;43.922;2023-11-21T09:17:10;16.37;;;5.23;;
74892;SDS011;63446;56.272;43.922;2023-11-21T09:19:37;13.98;;;4.75;;
74892;SDS011;63446;56.272;43.922;2023-11-21T09:22:04;14.85;;;5.20;;
74892;SDS011;63446;56.272;43.922;2023-11-21T09:24:33;14.43;;;4.53;;
74892;SDS011;63446;56.272;43.922;2023-11-21T09:27:00;11.53;;;4.77;;
74892;SDS011;63446;56.272;43.922;2023-11-21T09:29:27;11.15;;;4.55;;
74892;SDS011;63446;56.272;43.922;2023-11-21T09:31:53;13.52;;;5.30;;
74892;SDS011;63446;56.272;43.922;2023-11-21T09:34:20;13.52;;;4.97;;
74892;SDS011;63446;56.272;43.922;2023-11-21T09:36:47;15.75;;;5.60;;
74892;SDS011;63446;56.272;43.922;2023-11-21T09:39:14;11.07;;;4.63;;
74892;SDS011;63446;56.272;43.922;2023-11-21T09:41:43;14.90;;;5.28;;
74892;SDS011;63446;56.272;43.922;2023-11-21T09:44:13;13.40;;;4.50;;
74892;SDS011;63446;56.272;43.922;2023-11-21T09:46:42;15.73;;;5.40;;
74892;SDS011;63446;56.272;43.922;2023-11-21T09:49:09;12.13;;;4.90;;
74892;SDS011;63446;56.272;43.922;2023-11-21T09:51:47;13.10;;;4.63;;
74892;SDS011;63446;56.272;43.922;2023-11-21T09:54:15;14.20;;;4.63;;
74892;SDS011;63446;56.272;43.922;2023-11-21T09:56:43;13.00;;;4.75;;
74892;SDS011;63446;56.272;43.922;2023-11-21T09:59:13;12.82;;;4.47;;
74892;SDS011;63446;56.272;43.922;2023-11-21T10:01:41;11.80;;;4.15;;
74892;SDS011;63446;56.272;43.922;2023-11-21T10:04:08;11.17;;;3.90;;
74892;SDS011;63446;56.272;43.922;2023-11-21T10:06:40;11.48;;;4.30;;
74892;SDS011;63446;56.272;43.922;2023-11-21T10:09:10;11.45;;;4.32;;
74892;SDS011;63446;56.272;43.922;2023-11-21T10:11:43;12.70;;;4.18;;
74892;SDS011;63446;56.272;43.922;2023-11-21T10:14:10;9.77;;;3.90;;
74892;SDS011;63446;56.272;43.922;2023-11-21T10:16:38;11.27;;;4.10;;
74892;SDS011;63446;56.272;43.922;2023-11-21T10:19:08;14.98;;;3.90;;
74892;SDS011;63446;56.272;43.922;2023-11-21T10:21:35;13.15;;;4.72;;
74892;SDS011;63446;56.272;43.922;2023-11-21T10:24:04;12.80;;;4.00;;
74892;SDS011;63446;56.272;43.922;2023-11-21T10:26:31;9.57;;;3.38;;
74892;SDS011;63446;56.272;43.922;2023-11-21T10:28:59;11.33;;;3.23;;
74892;SDS011;63446;56.272;43.922;2023-11-21T10:31:26;14.50;;;4.10;;
74892;SDS011;63446;56.272;43.922;2023-11-21T10:33:53;11.10;;;4.03;;
74892;SDS011;63446;56.272;43.922;2023-11-21T10:36:24;11.48;;;4.38;;
74892;SDS011;63446;56.272;43.922;2023-11-21T10:38:53;14.50;;;4.63;;
74892;SDS011;63446;56.272;43.922;2023-11-21T10:41:21;12.40;;;4.17;;
74892;SDS011;63446;56.272;43.922;2023-11-21T10:43:47;9.77;;;4.00;;
74892;SDS011;63446;56.272;43.922;2023-11-21T10:46:13;12.48;;;4.15;;
74892;SDS011;63446;56.272;43.922;2023-11-21T10:48:42;11.80;;;3.90;;
74892;SDS011;63446;56.272;43.922;2023-11-21T10:51:09;11.90;;;4.03;;
74892;SDS011;63446;56.272;43.922;2023-11-21T10:53:41;10.93;;;3.90;;
74892;SDS011;63446;56.272;43.922;2023-11-21T10:56:12;10.30;;;3.47;;
74892;SDS011;63446;56.272;43.922;2023-11-21T10:58:45;10.07;;;4.22;;
74892;SDS011;63446;56.272;43.922;2023-11-21T11:01:11;11.07;;;3.38;;
74892;SDS011;63446;56.272;43.922;2023-11-21T11:03:39;12.27;;;4.30;;
74892;SDS011;63446;56.272;43.922;2023-11-21T11:06:08;11.38;;;4.20;;
74892;SDS011;63446;56.272;43.922;2023-11-21T11:08:37;11.90;;;4.30;;
74892;SDS011;63446;56.272;43.922;2023-11-21T11:11:07;10.93;;;3.60;;
74892;SDS011;63446;56.272;43.922;2023-11-21T11:13:35;13.70;;;4.85;;
74892;SDS011;63446;56.272;43.922;2023-11-21T11:16:02;10.43;;;4.03;;
74892;SDS011;63446;56.272;43.922;2023-11-21T11:18:33;12.02;;;4.30;;
74892;SDS011;63446;56.272;43.922;2023-11-21T11:21:23;9.85;;;3.95;;
74892;SDS011;63446;56.272;43.922;2023-11-21T11:29:42;12.23;;;4.10;;
74892;SDS011;63446;56.272;43.922;2023-11-21T11:35:19;11.50;;;3.63;;
74892;SDS011;63446;56.272;43.922;2023-11-21T11:38:07;11.77;;;3.75;;
74892;SDS011;63446;56.272;43.922;2023-11-21T11:40:40;10.40;;;3.80;;
74892;SDS011;63446;56.272;43.922;2023-11-21T11:43:07;10.13;;;3.33;;
74892;SDS011;63446;56.272;43.922;2023-11-21T11:45:34;8.13;;;3.08;;
74892;SDS011;63446;56.272;43.922;2023-11-21T11:48:01;8.85;;;3.65;;
74892;SDS011;63446;56.272;43.922;2023-11-21T11:50:29;9.93;;;3.70;;
74892;SDS011;63446;56.272;43.922;2023-11-21T11:52:55;10.32;;;3.92;;
74892;SDS011;63446;56.272;43.922;2023-11-21T11:55:38;12.60;;;4.00;;
74892;SDS011;63446;56.272;43.922;2023-11-21T11:58:05;11.20;;;3.72;;
74892;SDS011;63446;56.272;43.922;2023-11-21T12:03:01;14.10;;;3.92;;
74892;SDS011;63446;56.272;43.922;2023-11-21T12:05:29;10.80;;;4.25;;
74892;SDS011;63446;56.272;43.922;2023-11-21T12:07:59;14.13;;;4.40;;
74892;SDS011;63446;56.272;43.922;2023-11-21T12:10:32;10.93;;;4.18;;
74892;SDS011;63446;56.272;43.922;2023-11-21T12:13:00;14.63;;;4.35;;
74892;SDS011;63446;56.272;43.922;2023-11-21T12:15:27;11.88;;;3.88;;
74892;SDS011;63446;56.272;43.922;2023-11-21T12:17:57;11.50;;;4.13;;
74892;SDS011;63446;56.272;43.922;2023-11-21T12:20:27;10.50;;;3.43;;
74892;SDS011;63446;56.272;43.922;2023-11-21T12:22:55;12.13;;;3.90;;
74892;SDS011;63446;56.272;43.922;2023-11-21T12:25:25;14.77;;;4.00;;
74892;SDS011;63446;56.272;43.922;2023-11-21T12:27:58;8.93;;;3.20;;
74892;SDS011;63446;56.272;43.922;2023-11-21T12:30:27;9.02;;;3.38;;
74892;SDS011;63446;56.272;43.922;2023-11-21T12:32:59;10.63;;;3.90;;
74892;SDS011;63446;56.272;43.922;2023-11-21T12:35:30;9.55;;;3.60;;
74892;SDS011;63446;56.272;43.922;2023-11-21T12:38:00;9.50;;;3.85;;
74892;SDS011;63446;56.272;43.922;2023-11-21T12:40:31;8.32;;;3.33;;
74892;SDS011;63446;56.272;43.922;2023-11-21T12:42:58;8.63;;;3.38;;
74892;SDS011;63446;56.272;43.922;2023-11-21T12:45:27;7.93;;;3.20;;
74892;SDS011;63446;56.272;43.922;2023-11-21T12:50:29;10.57;;;3.80;;
74892;SDS011;63446;56.272;43.922;2023-11-21T12:55:32;10.15;;;3.55;;
74892;SDS011;63446;56.272;43.922;2023-11-21T12:58:04;10.30;;;2.93;;
74892;SDS011;63446;56.272;43.922;2023-11-21T13:00:36;7.82;;;2.63;;
74892;SDS011;63446;56.272;43.922;2023-11-21T13:03:09;7.55;;;2.85;;
74892;SDS011;63446;56.272;43.922;2023-11-21T13:05:39;5.40;;;1.85;;
74892;SDS011;63446;56.272;43.922;2023-11-21T13:08:16;8.10;;;3.08;;
74892;SDS011;63446;56.272;43.922;2023-11-21T13:10:46;7.70;;;3.07;;
74892;SDS011;63446;56.272;43.922;2023-11-21T13:13:15;8.15;;;3.17;;
74892;SDS011;63446;56.272;43.922;2023-11-21T13:15:53;11.02;;;3.70;;
74892;SDS011;63446;56.272;43.922;2023-11-21T13:18:24;8.98;;;3.28;;
74892;SDS011;63446;56.272;43.922;2023-11-21T13:20:55;9.88;;;3.92;;
74892;SDS011;63446;56.272;43.922;2023-11-21T13:23:23;9.57;;;3.80;;
74892;SDS011;63446;56.272;43.922;2023-11-21T13:25:49;9.70;;;3.47;;
74892;SDS011;63446;56.272;43.922;2023-11-21T13:28:17;6.93;;;2.92;;
74892;SDS011;63446;56.272;43.922;2023-11-21T13:30:49;10.32;;;2.75;;
74892;SDS011;63446;56.272;43.922;2023-11-21T13:33:18;9.27;;;3.22;;
74892;SDS011;63446;56.272;43.922;2023-11-21T13:35:48;8.20;;;2.97;;
74892;SDS011;63446;56.272;43.922;2023-11-21T13:38:16;7.47;;;2.85;;
74892;SDS011;63446;56.272;43.922;2023-11-21T13:40:50;11.10;;;3.20;;
74892;SDS011;63446;56.272;43.922;2023-11-21T13:43:22;8.07;;;3.03;;
74892;SDS011;63446;56.272;43.922;2023-11-21T13:45:51;8.32;;;3.22;;
74892;SDS011;63446;56.272;43.922;2023-11-21T13:48:27;9.90;;;3.13;;
74892;SDS011;63446;56.272;43.922;2023-11-21T13:51:06;11.98;;;3.55;;
74892;SDS011;63446;56.272;43.922;2023-11-21T13:53:44;8.05;;;3.00;;
74892;SDS011;63446;56.272;43.922;2023-11-21T13:56:14;8.73;;;2.67;;
74892;SDS011;63446;56.272;43.922;2023-11-21T13:58:45;7.38;;;3.10;;
74892;SDS011;63446;56.272;43.922;2023-11-21T14:01:19;7.40;;;2.80;;
74892;SDS011;63446;56.272;43.922;2023-11-21T14:03:58;8.25;;;3.00;;
74892;SDS011;63446;56.272;43.922;2023-11-21T14:06:49;8.45;;;3.33;;
74892;SDS011;63446;56.272;43.922;2023-11-21T14:09:20;8.38;;;3.10;;
74892;SDS011;63446;56.272;43.922;2023-11-21T14:12:01;8.80;;;3.45;;
74892;SDS011;63446;56.272;43.922;2023-11-21T14:14:32;8.70;;;3.30;;
74892;SDS011;63446;56.272;43.922;2023-11-21T14:16:58;9.63;;;3.50;;
74892;SDS011;63446;56.272;43.922;2023-11-21T14:19:32;10.32;;;3.05;;
74892;SDS011;63446;56.272;43.922;2023-11-21T14:21:59;8.77;;;3.33;;
74892;SDS011;63446;56.272;43.922;2023-11-21T14:24:26;6.78;;;2.60;;
74892;SDS011;63446;56.272;43.922;2023-11-21T14:26:53;8.33;;;3.10;;
74892;SDS011;63446;56.272;43.922;2023-11-21T15:00:19;6.85;;;3.08;;
74892;SDS011;63446;56.272;43.922;2023-11-21T15:03:02;12.93;;;3.75;;
74892;SDS011;63446;56.272;43.922;2023-11-21T15:05:30;13.57;;;4.07;;
74892;SDS011;63446;56.272;43.922;2023-11-21T15:07:57;13.18;;;4.20;;
74892;SDS011;63446;56.272;43.922;2023-11-21T15:10:34;8.67;;;2.77;;
74892;SDS011;63446;56.272;43.922;2023-11-21T15:13:15;10.18;;;3.28;;
74892;SDS011;63446;56.272;43.922;2023-11-21T15:15:42;9.77;;;3.33;;
74892;SDS011;63446;56.272;43.922;2023-11-21T15:18:08;10.25;;;3.58;;
74892;SDS011;63446;56.272;43.922;2023-11-21T15:20:39;10.07;;;3.65;;
74892;SDS011;63446;56.272;43.922;2023-11-21T15:23:06;10.73;;;3.80;;